Airfield :
LOGIN :

Register | Disclaimer

   EN    FR    IT 

 










Legend :    VFR   Marginal VFR   IFR   Intensive IFR   Very Intensive IFR
Visi :
Ceiling :
>= 8 km
>= 3000ft
5 to 8 km
1000 to 3000 ft
1500m to 5 km
500 to 1000 ft
800 to 1500m
200 to 500 ft
< 800m
< 200 ft
Symbols :   Thunderstorms  Fog  Heavy snow  Heavy precipitations  Wind > 20 kt
SIGMETs :     Misc.  Thunderstorms  Icing  Turbulence  Mountain Waves  Volcanic Ashes






- Airport Elevation : 978 ft
- IATA code : LNZ


LOWL - Linz

CURRENT METAR :
  • 181320Z 28006KT 250V310 9999 -SHRA VCTS FEW014 SCT020 FEW030CB BKN038 06/03 Q1014 TEMPO SHRA

EXPIRED METARs :
  • 181250Z 15005KT 120V190 9999 FEW003 SCT026 FEW030CB BKN042 07/05 Q1013 TEMPO SHRA
  • 181220Z VRB02KT 9999 FEW022 FEW030TCU BKN040 08/03 Q1013 TEMPO SHRA
  • 181150Z VRB02KT 9999 FEW011 FEW030TCU SCT048 07/03 Q1013 TEMPO SHRA
  • 181120Z VRB02KT 9999 FEW012 SCT060 07/04 Q1013 TEMPO SHRA
  • 181050Z VRB03KT 9999 -SHRA FEW008 SCT044 06/04 Q1013 TEMPO SHRA
  • 181020Z 11003KT 070V140 9999 -SHRA FEW009 BKN012 05/04 Q1013 TEMPO SHRA BKN016
  • 180950Z 27006KT 9999 -RA FEW010 SCT016 BKN022 05/03 Q1013 RESHRA TEMPO SHRA BKN014
  • 180920Z 30009KT 9000 -RADZ FEW008 SCT017 BKN025 05/03 Q1013 TEMPO SHRA BKN014
  • 180850Z 28011KT 9999 -RA FEW008 BKN020 BKN032 05/03 Q1013 NOSIG

TAF AMD TAF LOWL
Valid from the 18 at 12:00 until the 19 at 12:00 UTC


181222Z 1812/1912 28005KT 9999 FEW015 BKN025 TX08/1912Z TN02/1902Z
TEMPO 1812/1818 30015G25KT 4000 SHRA BKN014 FEW020CB
PROB30
TEMPO 1812/1815 TSRA
PROB30
TEMPO 1820/1822 VRB12KT SHRA BKN014 FEW020CB
TEMPO 1822/1907 BKN009
TEMPO 1906/1912 27015KT -SHRA



MET'MAP, your aeronautical weather chart ! - Copyright ORBIFLY December 2007 - Disclaimer

ORBIFLY MET'MAP TEAM :

Programming & Development : Alexandra Zaïnal
Original concept : Baudouin d'Aumeries
Technical & hardware support : Manuel Goepfert
Assistance : Marc-Olivier Méhu




SOURCES & CREDITS :

   NOAA